createdAt,value
2024-05-09T00:00:48.442Z,100.00
2024-05-09T00:03:36.905Z,100.00
2024-05-09T00:06:05.719Z,100.00
2024-05-09T00:08:34.586Z,100.00
2024-05-09T00:11:03.217Z,100.00
2024-05-09T00:13:31.710Z,100.00
2024-05-09T00:16:00.117Z,100.00
2024-05-09T00:18:28.594Z,100.00
2024-05-09T00:20:57.086Z,100.00
2024-05-09T00:23:25.622Z,100.00
2024-05-09T00:25:54.111Z,100.00
2024-05-09T00:28:23.195Z,100.00
2024-05-09T00:30:52.471Z,100.00
2024-05-09T00:33:21.286Z,100.00
2024-05-09T00:35:49.905Z,100.00
2024-05-09T00:38:18.352Z,100.00
2024-05-09T00:40:46.816Z,100.00
2024-05-09T00:43:15.680Z,100.00
2024-05-09T00:45:44.392Z,100.00
2024-05-09T00:48:19.627Z,100.00
2024-05-09T00:50:50.533Z,100.00
2024-05-09T00:53:19.307Z,100.00
2024-05-09T00:55:48.160Z,100.00
2024-05-09T00:58:21.158Z,100.00
2024-05-09T01:00:51.069Z,100.00
2024-05-09T01:03:20.366Z,100.00
2024-05-09T01:05:48.905Z,100.00
2024-05-09T01:08:18.214Z,100.00
2024-05-09T01:10:48.534Z,100.00
2024-05-09T01:13:17.356Z,100.00
2024-05-09T01:15:48.028Z,100.00
2024-05-09T01:18:16.907Z,100.00
2024-05-09T01:20:45.722Z,100.00
2024-05-09T01:23:16.030Z,100.00
2024-05-09T01:25:46.691Z,100.00
2024-05-09T01:28:16.304Z,100.00
2024-05-09T01:30:45.071Z,100.00
2024-05-09T01:33:13.925Z,100.00
2024-05-09T01:35:43.244Z,100.00
2024-05-09T01:38:17.246Z,100.00
2024-05-09T01:40:47.089Z,100.00
2024-05-09T01:43:16.092Z,100.00
2024-05-09T01:45:44.710Z,100.00
2024-05-09T01:48:13.378Z,100.00
2024-05-09T01:50:43.273Z,100.00
2024-05-09T01:53:14.919Z,100.00
2024-05-09T01:55:44.515Z,100.00
2024-05-09T01:58:13.226Z,100.00
2024-05-09T02:00:43.199Z,100.00
2024-05-09T02:03:16.409Z,100.00
2024-05-09T02:05:50.053Z,100.00
2024-05-09T02:08:21.259Z,100.00
2024-05-09T02:10:50.768Z,100.00
2024-05-09T02:13:19.631Z,100.00
2024-05-09T02:15:52.051Z,100.00
2024-05-09T02:18:20.897Z,100.00
2024-05-09T02:20:49.694Z,100.00
2024-05-09T02:23:18.377Z,100.00
2024-05-09T02:25:46.826Z,100.00
2024-05-09T02:28:15.228Z,100.00
2024-05-09T02:30:43.635Z,100.00
2024-05-09T02:33:13.958Z,100.00
2024-05-09T02:35:44.123Z,100.00
2024-05-09T02:38:13.682Z,100.00
2024-05-09T02:40:42.232Z,100.00
2024-05-09T02:43:12.985Z,100.00
2024-05-09T02:45:42.113Z,100.00
2024-05-09T02:48:12.089Z,100.00
2024-05-09T02:50:42.037Z,100.00
2024-05-09T02:53:14.756Z,100.00
2024-05-09T02:55:43.542Z,100.00
2024-05-09T02:58:12.400Z,100.00
2024-05-09T03:00:42.548Z,100.00
2024-05-09T03:03:14.336Z,100.00
2024-05-09T03:05:46.469Z,100.00
2024-05-09T03:08:15.904Z,100.00
2024-05-09T03:10:44.327Z,100.00
2024-05-09T03:13:15.215Z,100.00
2024-05-09T03:15:45.536Z,100.00
2024-05-09T03:18:15.596Z,100.00
2024-05-09T03:20:44.662Z,100.00
2024-05-09T03:23:13.476Z,100.00
2024-05-09T03:25:41.986Z,100.00
2024-05-09T03:28:11.421Z,100.00
2024-05-09T03:30:42.528Z,100.00
2024-05-09T03:33:20.529Z,100.00
2024-05-09T03:35:49.805Z,100.00
2024-05-09T03:38:18.447Z,100.00
2024-05-09T03:40:49.932Z,100.00
2024-05-09T03:43:19.921Z,100.00
2024-05-09T03:45:50.476Z,100.00
2024-05-09T03:48:19.239Z,100.00
2024-05-09T03:50:48.179Z,100.00
2024-05-09T03:53:16.929Z,100.00
2024-05-09T03:55:48.689Z,100.00
2024-05-09T03:58:17.117Z,100.00
2024-05-09T04:00:45.630Z,100.00
2024-05-09T04:03:14.873Z,100.00
2024-05-09T04:05:44.550Z,100.00
2024-05-09T04:08:15.662Z,100.00
2024-05-09T04:10:44.475Z,100.00
2024-05-09T04:13:13.103Z,100.00
2024-05-09T04:15:41.626Z,100.00
2024-05-09T04:18:10.320Z,100.00
2024-05-09T04:20:40.863Z,100.00
2024-05-09T04:23:14.607Z,100.00
2024-05-09T04:25:45.382Z,100.00
2024-05-09T04:28:14.496Z,100.00
2024-05-09T04:30:43.643Z,100.00
2024-05-09T04:33:15.072Z,100.00
2024-05-09T04:35:44.271Z,100.00
2024-05-09T04:38:14.644Z,100.00
2024-05-09T04:40:43.846Z,100.00
2024-05-09T04:43:18.487Z,100.00
2024-05-09T04:45:47.259Z,100.00
2024-05-09T04:48:16.371Z,100.00
2024-05-09T04:50:45.252Z,100.00
2024-05-09T04:53:17.185Z,100.00
2024-05-09T04:55:46.255Z,100.00
2024-05-09T04:58:14.760Z,100.00
2024-05-09T05:00:44.262Z,100.00
2024-05-09T05:03:15.272Z,100.00
2024-05-09T05:05:47.027Z,100.00
2024-05-09T05:08:17.983Z,100.00
2024-05-09T05:10:48.689Z,100.00
2024-05-09T05:13:21.659Z,100.00
2024-05-09T05:15:58.381Z,100.00
2024-05-09T05:18:28.295Z,100.00
2024-05-09T05:20:58.291Z,100.00
2024-05-09T05:23:27.056Z,100.00
2024-05-09T05:25:58.035Z,100.00
2024-05-09T05:28:26.396Z,100.00
2024-05-09T05:30:54.741Z,100.00
2024-05-09T05:33:23.596Z,100.00
2024-05-09T05:35:52.148Z,100.00
2024-05-09T05:38:23.870Z,100.00
2024-05-09T05:40:55.119Z,100.00
2024-05-09T05:43:23.644Z,100.00
2024-05-09T05:45:52.018Z,100.00
2024-05-09T05:48:20.534Z,100.00
2024-05-09T05:50:49.163Z,100.00
2024-05-09T05:53:17.667Z,100.00
2024-05-09T05:55:46.280Z,100.00
2024-05-09T05:58:15.073Z,100.00
2024-05-09T06:00:44.253Z,100.00
2024-05-09T06:03:14.164Z,100.00
2024-05-09T06:05:44.184Z,100.00
2024-05-09T06:08:13.056Z,100.00
2024-05-09T06:10:42.105Z,100.00
2024-05-09T06:13:13.117Z,100.00
2024-05-09T06:15:42.707Z,100.00
2024-05-09T06:18:12.622Z,100.00
2024-05-09T06:20:43.588Z,100.00
2024-05-09T06:23:14.288Z,100.00
2024-05-09T06:25:43.970Z,100.00
2024-05-09T06:28:12.469Z,100.00
2024-05-09T06:30:42.640Z,100.00
2024-05-09T06:33:14.350Z,100.00
2024-05-09T06:35:46.903Z,100.00
2024-05-09T06:38:15.428Z,100.00
2024-05-09T06:40:44.644Z,100.00
2024-05-09T06:43:15.571Z,100.00
2024-05-09T06:45:49.619Z,100.00
2024-05-09T06:48:19.733Z,100.00
2024-05-09T06:50:49.195Z,100.00
2024-05-09T06:53:23.465Z,100.00
2024-05-09T06:55:52.045Z,100.00
2024-05-09T06:58:20.495Z,100.00
2024-05-09T07:00:48.915Z,100.00
2024-05-09T07:03:19.062Z,100.00
2024-05-09T07:05:49.435Z,100.00
2024-05-09T07:08:19.042Z,100.00
2024-05-09T07:10:47.926Z,100.00
2024-05-09T07:13:16.657Z,100.00
2024-05-09T07:15:45.113Z,100.00
2024-05-09T07:18:17.829Z,100.00
2024-05-09T07:20:49.333Z,100.00
2024-05-09T07:23:19.264Z,100.00
2024-05-09T07:25:48.054Z,100.00
2024-05-09T07:28:19.147Z,100.00
2024-05-09T07:30:47.967Z,100.00
2024-05-09T07:33:22.963Z,100.00
2024-05-09T07:35:52.949Z,100.00
2024-05-09T07:38:21.807Z,100.00
2024-05-09T07:40:50.475Z,100.00
2024-05-09T07:43:18.906Z,100.00
2024-05-09T07:45:52.727Z,100.00
2024-05-09T07:52:39.102Z,100.00
2024-05-09T07:53:48.903Z,100.00
2024-05-09T07:56:22.699Z,100.00
2024-05-09T07:58:56.306Z,100.00
2024-05-09T08:01:26.482Z,100.00
2024-05-09T08:03:56.264Z,100.00
2024-05-09T08:06:25.418Z,100.00
2024-05-09T08:08:54.317Z,100.00
2024-05-09T08:11:23.677Z,100.00
2024-05-09T08:13:52.150Z,100.00
2024-05-09T08:16:20.695Z,100.00
2024-05-09T08:18:50.360Z,100.00
2024-05-09T08:21:19.289Z,100.00
2024-05-09T08:23:47.776Z,100.00
2024-05-09T08:26:16.183Z,100.00
2024-05-09T08:28:44.708Z,100.00
2024-05-09T08:31:13.337Z,100.00
2024-05-09T08:33:47.763Z,100.00
2024-05-09T08:36:17.328Z,100.00
2024-05-09T08:38:45.868Z,100.00
2024-05-09T08:41:15.802Z,100.00
2024-05-09T08:43:44.536Z,100.00
2024-05-09T08:46:14.223Z,100.00
2024-05-09T08:48:45.633Z,100.00
2024-05-09T08:51:14.499Z,100.00
2024-05-09T08:53:42.997Z,100.00
2024-05-09T08:56:11.666Z,100.00
2024-05-09T08:58:41.920Z,100.00
2024-05-09T09:01:12.245Z,100.00
2024-05-09T09:03:42.388Z,100.00
2024-05-09T09:06:15.063Z,100.00
2024-05-09T09:08:45.098Z,100.00
2024-05-09T09:11:13.604Z,100.00
2024-05-09T09:13:42.019Z,100.00
2024-05-09T09:16:10.423Z,93.59
2024-05-09T09:18:39.392Z,89.08
2024-05-09T09:21:10.617Z,89.11
2024-05-09T09:23:41.990Z,83.84
2024-05-09T09:26:16.241Z,85.41
2024-05-09T09:28:45.025Z,83.49
2024-05-09T09:31:19.584Z,78.27
2024-05-09T09:33:48.696Z,78.41
2024-05-09T09:36:18.363Z,80.23
2024-05-09T09:38:48.524Z,84.41
2024-05-09T09:41:17.855Z,81.50
2024-05-09T09:43:46.688Z,79.60
2024-05-09T09:46:17.054Z,81.38
2024-05-09T09:48:47.183Z,82.72
2024-05-09T09:51:16.436Z,84.37
2024-05-09T09:53:46.027Z,85.03
2024-05-09T09:56:17.947Z,86.55
2024-05-09T09:58:48.215Z,85.08
2024-05-09T10:01:16.790Z,82.97
2024-05-09T10:03:45.478Z,80.96
2024-05-09T10:06:15.413Z,79.06
2024-05-09T10:08:46.764Z,81.65
2024-05-09T10:11:21.099Z,80.16
2024-05-09T10:13:51.878Z,77.64
2024-05-09T10:16:23.032Z,74.96
2024-05-09T10:18:51.709Z,75.90
2024-05-09T10:21:20.843Z,74.28
2024-05-09T10:24:07.107Z,68.57
2024-05-09T10:26:38.324Z,70.49
2024-05-09T10:29:14.680Z,71.72
2024-05-09T10:31:45.626Z,69.10
2024-05-09T10:34:24.079Z,73.56
2024-05-09T10:36:54.441Z,73.05
2024-05-09T10:39:25.782Z,72.29
2024-05-09T10:41:54.259Z,72.17
2024-05-09T10:44:22.579Z,74.11
2024-05-09T10:46:50.961Z,72.57
2024-05-09T10:49:19.381Z,74.57
2024-05-09T10:51:48.601Z,75.45
2024-05-09T10:54:17.373Z,77.56
2024-05-09T10:56:45.818Z,76.04
2024-05-09T10:59:14.167Z,73.91
2024-05-09T11:01:42.664Z,75.05
2024-05-09T11:04:11.385Z,80.73
2024-05-09T11:06:40.390Z,75.94
2024-05-09T11:09:09.627Z,77.31
2024-05-09T11:11:38.128Z,75.05
2024-05-09T11:14:13.535Z,74.93
2024-05-09T11:16:41.893Z,71.66
2024-05-09T11:19:14.558Z,73.58
2024-05-09T11:21:43.256Z,72.22
2024-05-09T11:24:12.150Z,74.40
2024-05-09T11:26:40.530Z,72.88
2024-05-09T11:29:08.917Z,76.24
2024-05-09T11:31:47.794Z,75.86
2024-05-09T11:34:16.414Z,73.91
2024-05-09T11:36:44.946Z,77.14
2024-05-09T11:39:14.600Z,73.92
2024-05-09T11:41:43.088Z,72.21
2024-05-09T11:44:12.964Z,71.27
2024-05-09T11:46:42.702Z,72.87
2024-05-09T11:49:11.623Z,73.43
2024-05-09T11:51:40.157Z,72.46
2024-05-09T11:54:08.608Z,73.27
2024-05-09T11:56:37.175Z,72.96
2024-05-09T11:59:05.596Z,72.79
2024-05-09T12:01:34.140Z,74.77
2024-05-09T12:04:03.197Z,79.99
2024-05-09T12:06:32.112Z,77.05
2024-05-09T12:09:00.623Z,79.76
2024-05-09T12:11:29.119Z,80.26
2024-05-09T12:13:57.481Z,78.42
2024-05-09T12:16:26.244Z,73.63
2024-05-09T12:18:55.530Z,73.90
2024-05-09T12:21:23.997Z,74.57
2024-05-09T12:23:52.525Z,70.36
2024-05-09T12:26:20.981Z,68.38
2024-05-09T12:28:49.339Z,66.77
2024-05-09T12:31:17.773Z,65.37
2024-05-09T12:33:46.762Z,60.48
2024-05-09T12:36:15.266Z,63.03
2024-05-09T12:38:43.721Z,58.74
2024-05-09T12:41:12.118Z,61.06
2024-05-09T12:43:40.517Z,56.25
2024-05-09T12:46:08.939Z,55.39
2024-05-09T12:48:37.610Z,56.41
2024-05-09T12:51:06.208Z,58.94
2024-05-09T12:53:36.399Z,56.83
2024-05-09T12:56:06.657Z,56.10
2024-05-09T12:58:36.913Z,58.69
2024-05-09T13:01:05.556Z,61.72
2024-05-09T13:03:34.143Z,61.83
2024-05-09T13:06:02.766Z,62.72
2024-05-09T13:08:31.282Z,63.77
2024-05-09T13:11:00.308Z,65.09
2024-05-09T13:13:29.218Z,66.89
2024-05-09T13:15:57.654Z,66.15
2024-05-09T13:18:26.104Z,64.36
2024-05-09T13:20:54.428Z,67.45
2024-05-09T13:23:22.811Z,70.23
2024-05-09T13:25:51.221Z,70.95
2024-05-09T13:28:19.685Z,68.79
2024-05-09T13:30:48.328Z,65.40
2024-05-09T13:33:16.854Z,62.66
2024-05-09T13:35:49.233Z,57.01
2024-05-09T13:38:20.254Z,54.01
2024-05-09T13:40:50.422Z,53.33
2024-05-09T13:43:20.742Z,52.64
2024-05-09T13:45:49.639Z,53.14
2024-05-09T13:48:19.632Z,52.62
2024-05-09T13:50:48.538Z,47.86
2024-05-09T13:53:17.056Z,48.40
2024-05-09T13:55:45.626Z,47.84
2024-05-09T13:58:14.508Z,45.87
2024-05-09T14:00:47.889Z,46.28
2024-05-09T14:03:20.603Z,47.80
2024-05-09T14:05:51.570Z,51.33
2024-05-09T14:08:22.132Z,53.34
2024-05-09T14:10:52.206Z,53.16
2024-05-09T14:13:21.103Z,49.52
2024-05-09T14:15:49.996Z,52.97
2024-05-09T14:18:18.864Z,55.65
2024-05-09T14:20:47.282Z,55.20
2024-05-09T14:23:18.200Z,54.78
2024-05-09T14:25:52.368Z,52.75
2024-05-09T14:28:22.941Z,53.58
2024-05-09T14:30:51.726Z,54.43
2024-05-09T14:33:25.433Z,56.01
2024-05-09T14:35:54.521Z,56.18
2024-05-09T14:38:27.821Z,55.11
2024-05-09T14:40:56.396Z,53.59
2024-05-09T14:43:26.588Z,53.59
2024-05-09T14:45:55.943Z,53.16
2024-05-09T14:48:24.613Z,52.41
2024-05-09T14:50:53.107Z,53.01
2024-05-09T14:53:23.444Z,54.93
2024-05-09T14:55:51.927Z,53.97
2024-05-09T14:58:20.605Z,53.15
2024-05-09T15:00:51.735Z,54.92
2024-05-09T15:03:21.607Z,52.36
2024-05-09T15:05:51.826Z,51.65
2024-05-09T15:08:20.733Z,52.22
2024-05-09T15:10:50.228Z,55.70
2024-05-09T15:13:21.680Z,55.64
2024-05-09T15:15:50.538Z,61.75
2024-05-09T15:18:19.368Z,63.35
2024-05-09T15:20:48.292Z,65.08
2024-05-09T15:23:16.908Z,64.42
2024-05-09T15:25:45.359Z,66.87
2024-05-09T15:28:13.934Z,66.97
2024-05-09T15:30:46.142Z,69.74
2024-05-09T15:33:15.410Z,69.35
2024-05-09T15:35:46.131Z,69.18
2024-05-09T15:38:15.853Z,67.79
2024-05-09T15:40:44.480Z,67.41
2024-05-09T15:43:13.244Z,68.80
2024-05-09T15:45:41.916Z,67.48
2024-05-09T15:48:11.225Z,65.94
2024-05-09T15:50:42.089Z,62.96
2024-05-09T15:53:13.404Z,63.09
2024-05-09T15:55:43.234Z,61.00
2024-05-09T15:58:12.866Z,60.14
2024-05-09T16:00:44.788Z,60.51
2024-05-09T16:03:15.278Z,61.27
2024-05-09T16:05:48.169Z,59.23
2024-05-09T16:08:17.177Z,60.65
2024-05-09T16:10:47.125Z,66.54
2024-05-09T16:13:17.316Z,70.01
2024-05-09T16:15:46.526Z,72.01
2024-05-09T16:18:15.596Z,76.18
2024-05-09T16:20:45.658Z,72.42
2024-05-09T16:23:15.975Z,73.71
2024-05-09T16:25:47.469Z,72.42
2024-05-09T16:28:16.789Z,77.29
2024-05-09T16:30:45.317Z,75.42
2024-05-09T16:33:13.981Z,75.70
2024-05-09T16:35:42.428Z,78.26
2024-05-09T16:38:10.848Z,82.51
2024-05-09T16:40:41.119Z,84.03
2024-05-09T16:43:13.104Z,83.68
2024-05-09T16:45:44.578Z,80.84
2024-05-09T16:48:14.062Z,91.26
2024-05-09T16:50:43.483Z,96.95
2024-05-09T16:53:13.550Z,96.05
2024-05-09T16:55:41.984Z,94.50
2024-05-09T16:58:12.268Z,95.51
2024-05-09T17:00:43.445Z,97.55
2024-05-09T17:03:15.202Z,99.77
2024-05-09T17:05:48.508Z,100.00
2024-05-09T17:08:20.382Z,100.00
2024-05-09T17:10:49.936Z,100.00
2024-05-09T17:13:19.375Z,100.00
2024-05-09T17:15:52.307Z,100.00
2024-05-09T17:18:21.037Z,100.00
2024-05-09T17:20:51.342Z,100.00
2024-05-09T17:23:19.872Z,100.00
2024-05-09T17:25:48.246Z,100.00
2024-05-09T17:28:17.175Z,100.00
2024-05-09T17:30:45.699Z,100.00
2024-05-09T17:33:14.395Z,100.00
2024-05-09T17:35:45.487Z,100.00
2024-05-09T17:38:13.944Z,100.00
2024-05-09T18:11:36.444Z,100.00
2024-05-09T18:14:05.147Z,100.00
2024-05-09T18:16:33.717Z,100.00
2024-05-09T18:19:02.564Z,100.00
2024-05-09T18:21:31.338Z,100.00
2024-05-09T18:24:00.340Z,100.00
2024-05-09T18:26:29.214Z,100.00
2024-05-09T18:28:57.853Z,100.00
2024-05-09T18:31:26.349Z,100.00
2024-05-09T18:33:55.075Z,100.00
2024-05-09T18:36:23.805Z,100.00
2024-05-09T18:38:52.567Z,100.00
2024-05-09T18:41:21.832Z,100.00
2024-05-09T18:43:51.038Z,100.00
2024-05-09T18:46:19.710Z,100.00
2024-05-09T18:48:48.196Z,100.00
2024-05-09T18:51:16.991Z,100.00
2024-05-09T18:53:46.168Z,100.00
2024-05-09T18:56:14.720Z,100.00
2024-05-09T18:58:43.144Z,100.00
2024-05-09T19:01:11.689Z,100.00
2024-05-09T19:03:40.819Z,100.00
2024-05-09T19:06:09.547Z,100.00
2024-05-09T19:08:40.362Z,100.00
2024-05-09T19:11:08.905Z,100.00
2024-05-09T19:13:37.382Z,100.00
2024-05-09T19:16:06.343Z,100.00
2024-05-09T19:18:36.179Z,100.00
2024-05-09T19:21:05.145Z,100.00
2024-05-09T19:23:38.075Z,100.00
2024-05-09T19:26:08.409Z,100.00
2024-05-09T19:28:36.755Z,100.00
2024-05-09T19:31:05.557Z,100.00
2024-05-09T19:33:34.062Z,100.00
2024-05-09T19:36:03.195Z,100.00
2024-05-09T19:38:32.065Z,100.00
2024-05-09T19:41:00.725Z,100.00
2024-05-09T19:43:31.405Z,100.00
2024-05-09T19:46:01.297Z,100.00
2024-05-09T19:48:29.779Z,100.00
2024-05-09T19:50:58.261Z,100.00
2024-05-09T19:53:26.640Z,100.00
2024-05-09T19:55:55.599Z,100.00
2024-05-09T19:58:41.785Z,100.00
2024-05-09T20:01:10.284Z,100.00
2024-05-09T20:03:38.977Z,100.00
2024-05-09T20:06:07.700Z,100.00
2024-05-09T20:08:36.323Z,100.00
2024-05-09T20:11:05.077Z,100.00
2024-05-09T20:13:33.497Z,100.00
2024-05-09T20:16:02.194Z,100.00
2024-05-09T20:18:30.795Z,100.00
2024-05-09T20:21:00.098Z,100.00
2024-05-09T20:23:29.234Z,100.00
2024-05-09T20:25:58.510Z,100.00
2024-05-09T20:28:27.393Z,100.00
2024-05-09T20:30:56.072Z,100.00
2024-05-09T20:33:24.548Z,100.00
2024-05-09T20:35:55.407Z,100.00
2024-05-09T20:38:23.896Z,100.00
2024-05-09T20:40:52.604Z,100.00
2024-05-09T20:43:21.418Z,100.00
2024-05-09T20:45:50.131Z,100.00
2024-05-09T20:48:18.715Z,100.00
2024-05-09T20:50:49.385Z,100.00
2024-05-09T20:53:17.846Z,100.00
2024-05-09T20:55:47.167Z,100.00
2024-05-09T20:58:15.570Z,100.00
2024-05-09T21:00:45.817Z,100.00
2024-05-09T21:03:17.303Z,100.00
2024-05-09T21:05:48.392Z,100.00
2024-05-09T21:08:17.515Z,100.00
2024-05-09T21:10:46.054Z,100.00
2024-05-09T21:13:14.895Z,100.00
2024-05-09T21:15:44.774Z,100.00
2024-05-09T21:18:13.280Z,100.00
2024-05-09T21:20:42.330Z,100.00
2024-05-09T21:23:10.920Z,100.00
2024-05-09T21:25:39.595Z,100.00
2024-05-09T21:28:08.205Z,100.00
2024-05-09T21:30:41.805Z,100.00
2024-05-09T21:33:13.860Z,100.00
2024-05-09T21:35:44.346Z,100.00
2024-05-09T21:38:14.699Z,100.00
2024-05-09T21:40:44.568Z,100.00
2024-05-09T21:43:14.283Z,100.00
2024-05-09T21:45:43.341Z,100.00
2024-05-09T21:48:13.476Z,100.00
2024-05-09T21:50:42.695Z,100.00
2024-05-09T21:53:12.606Z,100.00
2024-05-09T21:55:47.347Z,100.00
2024-05-09T21:58:16.087Z,100.00
2024-05-09T22:00:46.358Z,100.00
2024-05-09T22:03:15.475Z,100.00
2024-05-09T22:05:45.206Z,100.00
2024-05-09T22:08:14.176Z,100.00
2024-05-09T22:10:42.977Z,100.00
2024-05-09T22:13:11.585Z,100.00
2024-05-09T22:15:40.778Z,100.00
2024-05-09T22:18:11.063Z,100.00
2024-05-09T22:20:45.458Z,100.00
2024-05-09T22:23:15.792Z,100.00
2024-05-09T22:25:44.606Z,100.00
2024-05-09T22:28:17.443Z,100.00
2024-05-09T22:30:47.036Z,100.00
2024-05-09T22:33:16.379Z,100.00
2024-05-09T22:35:45.144Z,100.00
2024-05-09T22:38:13.867Z,100.00
2024-05-09T22:40:47.705Z,100.00
2024-05-09T22:43:21.498Z,100.00
2024-05-09T22:45:56.897Z,100.00
2024-05-09T22:48:26.289Z,100.00
2024-05-09T22:50:55.224Z,100.00
2024-05-09T22:53:25.563Z,100.00
2024-05-09T22:55:54.491Z,100.00
2024-05-09T22:58:23.578Z,100.00
2024-05-09T23:00:52.730Z,100.00
2024-05-09T23:03:22.668Z,100.00
2024-05-09T23:05:53.334Z,100.00
2024-05-09T23:08:21.938Z,100.00
2024-05-09T23:10:50.929Z,100.00
2024-05-09T23:13:19.702Z,100.00
2024-05-09T23:15:48.362Z,100.00
2024-05-09T23:18:17.027Z,100.00
2024-05-09T23:20:45.484Z,100.00
2024-05-09T23:23:13.935Z,100.00
2024-05-09T23:25:42.373Z,100.00
2024-05-09T23:28:11.796Z,100.00
2024-05-09T23:30:41.474Z,100.00
2024-05-09T23:33:13.166Z,100.00
2024-05-09T23:35:44.374Z,100.00
2024-05-09T23:38:13.825Z,100.00
2024-05-09T23:40:43.291Z,100.00
2024-05-09T23:43:14.223Z,100.00
2024-05-09T23:45:43.816Z,100.00
2024-05-09T23:48:12.529Z,100.00
2024-05-09T23:50:41.837Z,100.00
2024-05-09T23:53:11.179Z,100.00
2024-05-09T23:55:40.519Z,100.00
2024-05-09T23:58:11.234Z,100.00
